sensor_id;sensor_type;location;lat;lon;timestamp;temperature;humidity
25450;DHT22;13371;52.080;5.624;2023-05-07T00:02:02;17.30;99.90
25450;DHT22;13371;52.080;5.624;2023-05-07T00:04:29;17.20;99.90
25450;DHT22;13371;52.080;5.624;2023-05-07T00:07:01;16.80;99.90
25450;DHT22;13371;52.080;5.624;2023-05-07T00:09:26;16.90;99.90
25450;DHT22;13371;52.080;5.624;2023-05-07T00:11:52;17.10;99.90
25450;DHT22;13371;52.080;5.624;2023-05-07T00:14:18;17.40;99.90
25450;DHT22;13371;52.080;5.624;2023-05-07T00:16:43;17.60;99.90
25450;DHT22;13371;52.080;5.624;2023-05-07T00:19:09;17.70;99.90
25450;DHT22;13371;52.080;5.624;2023-05-07T00:21:34;17.30;99.90
25450;DHT22;13371;52.080;5.624;2023-05-07T00:24:00;17.20;99.90
25450;DHT22;13371;52.080;5.624;2023-05-07T00:26:26;17.30;99.90
25450;DHT22;13371;52.080;5.624;2023-05-07T00:28:51;17.40;99.90
25450;DHT22;13371;52.080;5.624;2023-05-07T00:31:17;17.10;99.90
25450;DHT22;13371;52.080;5.624;2023-05-07T00:33:42;17.40;99.90
25450;DHT22;13371;52.080;5.624;2023-05-07T00:36:08;17.10;99.90
25450;DHT22;13371;52.080;5.624;2023-05-07T00:38:34;17.00;99.90
25450;DHT22;13371;52.080;5.624;2023-05-07T00:40:59;17.10;99.90
25450;DHT22;13371;52.080;5.624;2023-05-07T00:43:25;17.50;99.90
25450;DHT22;13371;52.080;5.624;2023-05-07T00:45:51;17.10;99.90
25450;DHT22;13371;52.080;5.624;2023-05-07T00:48:16;17.10;99.90
25450;DHT22;13371;52.080;5.624;2023-05-07T00:50:42;17.20;99.90
25450;DHT22;13371;52.080;5.624;2023-05-07T00:53:08;16.80;99.90
25450;DHT22;13371;52.080;5.624;2023-05-07T00:55:35;16.90;99.90
25450;DHT22;13371;52.080;5.624;2023-05-07T00:58:01;16.80;99.90
25450;DHT22;13371;52.080;5.624;2023-05-07T01:00:26;17.20;99.90
25450;DHT22;13371;52.080;5.624;2023-05-07T01:02:52;17.10;99.90
25450;DHT22;13371;52.080;5.624;2023-05-07T01:05:19;17.20;99.90
25450;DHT22;13371;52.080;5.624;2023-05-07T01:07:46;17.30;99.90
25450;DHT22;13371;52.080;5.624;2023-05-07T01:10:12;17.60;99.90
25450;DHT22;13371;52.080;5.624;2023-05-07T01:12:39;17.80;99.90
25450;DHT22;13371;52.080;5.624;2023-05-07T01:15:06;17.30;99.90
25450;DHT22;13371;52.080;5.624;2023-05-07T01:17:37;17.60;99.90
25450;DHT22;13371;52.080;5.624;2023-05-07T01:20:04;17.80;99.90
25450;DHT22;13371;52.080;5.624;2023-05-07T01:22:40;17.60;99.90
25450;DHT22;13371;52.080;5.624;2023-05-07T01:25:07;17.50;99.90
25450;DHT22;13371;52.080;5.624;2023-05-07T01:27:33;17.30;99.90
25450;DHT22;13371;52.080;5.624;2023-05-07T01:29:59;17.20;99.90
25450;DHT22;13371;52.080;5.624;2023-05-07T01:32:58;17.10;99.90
25450;DHT22;13371;52.080;5.624;2023-05-07T01:35:29;17.00;99.90
25450;DHT22;13371;52.080;5.624;2023-05-07T01:37:56;17.20;99.90
25450;DHT22;13371;52.080;5.624;2023-05-07T01:40:22;17.00;99.90
25450;DHT22;13371;52.080;5.624;2023-05-07T01:42:48;17.00;99.90
25450;DHT22;13371;52.080;5.624;2023-05-07T01:45:14;16.80;99.90
25450;DHT22;13371;52.080;5.624;2023-05-07T01:47:40;16.70;99.90
25450;DHT22;13371;52.080;5.624;2023-05-07T01:50:07;16.60;99.90
25450;DHT22;13371;52.080;5.624;2023-05-07T01:52:34;16.90;99.90
25450;DHT22;13371;52.080;5.624;2023-05-07T01:54:59;16.70;99.90
25450;DHT22;13371;52.080;5.624;2023-05-07T01:57:25;16.90;99.90
25450;DHT22;13371;52.080;5.624;2023-05-07T01:59:51;17.20;99.90
25450;DHT22;13371;52.080;5.624;2023-05-07T02:02:16;17.10;99.90
25450;DHT22;13371;52.080;5.624;2023-05-07T02:04:42;17.00;99.90
25450;DHT22;13371;52.080;5.624;2023-05-07T02:07:07;17.30;99.90
25450;DHT22;13371;52.080;5.624;2023-05-07T02:09:33;17.60;99.90
25450;DHT22;13371;52.080;5.624;2023-05-07T02:11:58;17.40;99.90
25450;DHT22;13371;52.080;5.624;2023-05-07T02:14:24;17.20;99.90
25450;DHT22;13371;52.080;5.624;2023-05-07T02:16:51;16.80;99.90
25450;DHT22;13371;52.080;5.624;2023-05-07T02:19:17;16.50;99.90
25450;DHT22;13371;52.080;5.624;2023-05-07T02:21:43;16.70;99.90
25450;DHT22;13371;52.080;5.624;2023-05-07T02:24:09;16.70;99.90
25450;DHT22;13371;52.080;5.624;2023-05-07T02:26:34;17.10;99.90
25450;DHT22;13371;52.080;5.624;2023-05-07T02:29:00;17.10;99.90
25450;DHT22;13371;52.080;5.624;2023-05-07T02:31:26;17.40;99.90
25450;DHT22;13371;52.080;5.624;2023-05-07T02:33:51;17.60;99.90
25450;DHT22;13371;52.080;5.624;2023-05-07T02:36:17;17.70;99.90
25450;DHT22;13371;52.080;5.624;2023-05-07T02:38:42;17.60;99.90
25450;DHT22;13371;52.080;5.624;2023-05-07T02:41:08;17.70;99.90
25450;DHT22;13371;52.080;5.624;2023-05-07T02:43:33;17.80;99.90
25450;DHT22;13371;52.080;5.624;2023-05-07T02:46:07;17.80;99.90
25450;DHT22;13371;52.080;5.624;2023-05-07T02:48:33;17.80;99.90
25450;DHT22;13371;52.080;5.624;2023-05-07T02:50:59;17.80;99.90
25450;DHT22;13371;52.080;5.624;2023-05-07T02:53:25;18.00;99.90
25450;DHT22;13371;52.080;5.624;2023-05-07T02:55:56;18.10;99.90
25450;DHT22;13371;52.080;5.624;2023-05-07T02:58:22;17.90;99.90
25450;DHT22;13371;52.080;5.624;2023-05-07T03:00:47;17.20;99.90
25450;DHT22;13371;52.080;5.624;2023-05-07T03:03:14;17.60;99.90
25450;DHT22;13371;52.080;5.624;2023-05-07T03:05:40;17.80;99.90
25450;DHT22;13371;52.080;5.624;2023-05-07T03:08:06;17.40;99.90
25450;DHT22;13371;52.080;5.624;2023-05-07T03:10:32;17.00;99.90
25450;DHT22;13371;52.080;5.624;2023-05-07T03:12:57;17.20;99.90
25450;DHT22;13371;52.080;5.624;2023-05-07T03:15:23;17.30;99.90
25450;DHT22;13371;52.080;5.624;2023-05-07T03:17:48;17.70;99.90
25450;DHT22;13371;52.080;5.624;2023-05-07T03:20:14;17.30;99.90
25450;DHT22;13371;52.080;5.624;2023-05-07T03:22:40;16.80;99.90
25450;DHT22;13371;52.080;5.624;2023-05-07T03:25:06;17.00;99.90
25450;DHT22;13371;52.080;5.624;2023-05-07T03:27:32;17.20;99.90
25450;DHT22;13371;52.080;5.624;2023-05-07T03:29:58;17.40;99.90
25450;DHT22;13371;52.080;5.624;2023-05-07T03:32:23;17.40;99.90
25450;DHT22;13371;52.080;5.624;2023-05-07T03:34:49;17.60;99.90
25450;DHT22;13371;52.080;5.624;2023-05-07T03:37:14;16.60;99.90
25450;DHT22;13371;52.080;5.624;2023-05-07T03:39:40;16.60;99.90
25450;DHT22;13371;52.080;5.624;2023-05-07T03:42:06;16.70;99.90
25450;DHT22;13371;52.080;5.624;2023-05-07T03:44:31;17.10;99.90
25450;DHT22;13371;52.080;5.624;2023-05-07T03:46:57;17.40;99.90
25450;DHT22;13371;52.080;5.624;2023-05-07T03:49:22;17.10;99.90
25450;DHT22;13371;52.080;5.624;2023-05-07T03:51:48;17.50;99.90
25450;DHT22;13371;52.080;5.624;2023-05-07T03:54:14;17.60;99.90
25450;DHT22;13371;52.080;5.624;2023-05-07T03:56:39;17.40;99.90
25450;DHT22;13371;52.080;5.624;2023-05-07T03:59:05;16.90;99.90
25450;DHT22;13371;52.080;5.624;2023-05-07T04:01:30;16.90;99.90
25450;DHT22;13371;52.080;5.624;2023-05-07T04:03:56;17.20;99.90
25450;DHT22;13371;52.080;5.624;2023-05-07T04:06:22;17.30;99.90
25450;DHT22;13371;52.080;5.624;2023-05-07T04:08:47;17.10;99.90
25450;DHT22;13371;52.080;5.624;2023-05-07T04:11:13;17.10;99.90
25450;DHT22;13371;52.080;5.624;2023-05-07T04:13:38;17.30;99.90
25450;DHT22;13371;52.080;5.624;2023-05-07T04:16:05;17.30;99.90
25450;DHT22;13371;52.080;5.624;2023-05-07T04:18:30;17.40;99.90
25450;DHT22;13371;52.080;5.624;2023-05-07T04:20:56;17.70;99.90
25450;DHT22;13371;52.080;5.624;2023-05-07T04:23:22;17.90;99.90
25450;DHT22;13371;52.080;5.624;2023-05-07T04:25:47;17.90;99.90
25450;DHT22;13371;52.080;5.624;2023-05-07T04:28:13;18.10;99.90
25450;DHT22;13371;52.080;5.624;2023-05-07T04:30:39;18.10;99.90
25450;DHT22;13371;52.080;5.624;2023-05-07T04:33:05;18.10;99.70
25450;DHT22;13371;52.080;5.624;2023-05-07T04:35:32;18.20;99.90
25450;DHT22;13371;52.080;5.624;2023-05-07T04:37:57;18.20;99.80
25450;DHT22;13371;52.080;5.624;2023-05-07T04:40:23;18.40;99.50
25450;DHT22;13371;52.080;5.624;2023-05-07T04:42:48;18.50;99.30
25450;DHT22;13371;52.080;5.624;2023-05-07T04:45:14;18.50;99.20
25450;DHT22;13371;52.080;5.624;2023-05-07T04:47:40;18.40;99.30
25450;DHT22;13371;52.080;5.624;2023-05-07T04:50:06;18.30;99.30
25450;DHT22;13371;52.080;5.624;2023-05-07T04:52:33;18.40;99.50
25450;DHT22;13371;52.080;5.624;2023-05-07T04:54:59;18.40;99.10
25450;DHT22;13371;52.080;5.624;2023-05-07T04:57:26;18.30;99.70
25450;DHT22;13371;52.080;5.624;2023-05-07T04:59:52;18.20;99.70
25450;DHT22;13371;52.080;5.624;2023-05-07T05:02:21;17.90;99.90
25450;DHT22;13371;52.080;5.624;2023-05-07T05:04:47;18.00;99.90
25450;DHT22;13371;52.080;5.624;2023-05-07T05:07:12;17.80;99.90
25450;DHT22;13371;52.080;5.624;2023-05-07T05:09:38;17.10;99.90
25450;DHT22;13371;52.080;5.624;2023-05-07T05:12:04;17.10;99.90
25450;DHT22;13371;52.080;5.624;2023-05-07T05:14:32;17.10;99.90
25450;DHT22;13371;52.080;5.624;2023-05-07T05:16:58;16.80;99.90
25450;DHT22;13371;52.080;5.624;2023-05-07T05:19:23;16.90;99.90
25450;DHT22;13371;52.080;5.624;2023-05-07T05:21:49;17.20;99.90
25450;DHT22;13371;52.080;5.624;2023-05-07T05:24:14;16.60;99.90
25450;DHT22;13371;52.080;5.624;2023-05-07T05:26:40;16.70;99.90
25450;DHT22;13371;52.080;5.624;2023-05-07T05:29:06;17.00;99.90
25450;DHT22;13371;52.080;5.624;2023-05-07T05:31:33;17.10;99.90
25450;DHT22;13371;52.080;5.624;2023-05-07T05:33:58;16.90;99.90
25450;DHT22;13371;52.080;5.624;2023-05-07T05:36:24;16.60;99.90
25450;DHT22;13371;52.080;5.624;2023-05-07T05:38:50;16.80;99.90
25450;DHT22;13371;52.080;5.624;2023-05-07T05:41:15;17.10;99.90
25450;DHT22;13371;52.080;5.624;2023-05-07T05:43:41;17.40;99.90
25450;DHT22;13371;52.080;5.624;2023-05-07T05:46:07;17.40;99.90
25450;DHT22;13371;52.080;5.624;2023-05-07T05:48:34;17.40;99.90
25450;DHT22;13371;52.080;5.624;2023-05-07T05:51:00;17.10;99.90
25450;DHT22;13371;52.080;5.624;2023-05-07T05:53:25;17.20;99.90
25450;DHT22;13371;52.080;5.624;2023-05-07T05:55:51;17.00;99.90
25450;DHT22;13371;52.080;5.624;2023-05-07T05:58:16;16.80;99.90
25450;DHT22;13371;52.080;5.624;2023-05-07T06:00:42;17.00;99.90
25450;DHT22;13371;52.080;5.624;2023-05-07T06:03:07;17.30;99.90
25450;DHT22;13371;52.080;5.624;2023-05-07T06:05:33;17.70;99.90
25450;DHT22;13371;52.080;5.624;2023-05-07T06:07:58;17.40;99.90
25450;DHT22;13371;52.080;5.624;2023-05-07T06:10:24;17.30;99.90
25450;DHT22;13371;52.080;5.624;2023-05-07T06:12:51;17.70;99.90
25450;DHT22;13371;52.080;5.624;2023-05-07T06:15:16;17.40;99.90
25450;DHT22;13371;52.080;5.624;2023-05-07T06:17:42;17.60;99.90
25450;DHT22;13371;52.080;5.624;2023-05-07T06:20:08;16.80;99.90
25450;DHT22;13371;52.080;5.624;2023-05-07T06:22:33;16.60;99.90
25450;DHT22;13371;52.080;5.624;2023-05-07T06:24:59;17.30;99.90
25450;DHT22;13371;52.080;5.624;2023-05-07T06:27:24;17.60;99.90
25450;DHT22;13371;52.080;5.624;2023-05-07T06:29:50;17.60;99.90
25450;DHT22;13371;52.080;5.624;2023-05-07T06:32:16;18.10;99.90
25450;DHT22;13371;52.080;5.624;2023-05-07T06:34:42;18.20;99.90
25450;DHT22;13371;52.080;5.624;2023-05-07T06:37:08;18.10;99.90
25450;DHT22;13371;52.080;5.624;2023-05-07T06:39:33;17.40;99.90
25450;DHT22;13371;52.080;5.624;2023-05-07T06:42:00;17.50;99.90
25450;DHT22;13371;52.080;5.624;2023-05-07T06:44:26;17.60;99.90
25450;DHT22;13371;52.080;5.624;2023-05-07T06:46:52;17.40;99.90
25450;DHT22;13371;52.080;5.624;2023-05-07T06:49:17;17.40;99.90
25450;DHT22;13371;52.080;5.624;2023-05-07T06:51:43;16.90;99.90
25450;DHT22;13371;52.080;5.624;2023-05-07T06:54:09;17.30;99.90
25450;DHT22;13371;52.080;5.624;2023-05-07T06:56:34;16.60;99.90
25450;DHT22;13371;52.080;5.624;2023-05-07T06:59:01;16.50;99.90
25450;DHT22;13371;52.080;5.624;2023-05-07T07:01:26;16.10;99.90
25450;DHT22;13371;52.080;5.624;2023-05-07T07:03:52;16.60;99.90
25450;DHT22;13371;52.080;5.624;2023-05-07T07:06:17;17.00;99.90
25450;DHT22;13371;52.080;5.624;2023-05-07T07:08:43;17.00;99.90
25450;DHT22;13371;52.080;5.624;2023-05-07T07:11:10;17.50;99.90
25450;DHT22;13371;52.080;5.624;2023-05-07T07:13:35;17.80;99.90
25450;DHT22;13371;52.080;5.624;2023-05-07T07:16:01;18.10;99.90
25450;DHT22;13371;52.080;5.624;2023-05-07T07:18:27;18.10;99.90
25450;DHT22;13371;52.080;5.624;2023-05-07T07:20:53;18.00;99.90
25450;DHT22;13371;52.080;5.624;2023-05-07T07:23:18;18.10;99.90
25450;DHT22;13371;52.080;5.624;2023-05-07T07:25:44;17.50;99.90
25450;DHT22;13371;52.080;5.624;2023-05-07T07:28:10;17.60;99.90
25450;DHT22;13371;52.080;5.624;2023-05-07T07:30:36;18.00;99.90
25450;DHT22;13371;52.080;5.624;2023-05-07T07:33:02;18.10;99.90
25450;DHT22;13371;52.080;5.624;2023-05-07T07:35:32;18.40;99.90
25450;DHT22;13371;52.080;5.624;2023-05-07T07:37:58;18.60;99.90
25450;DHT22;13371;52.080;5.624;2023-05-07T07:40:23;18.80;99.90
25450;DHT22;13371;52.080;5.624;2023-05-07T07:42:50;18.80;99.90
25450;DHT22;13371;52.080;5.624;2023-05-07T07:45:16;18.80;99.90
25450;DHT22;13371;52.080;5.624;2023-05-07T07:47:41;18.70;99.90
25450;DHT22;13371;52.080;5.624;2023-05-07T07:50:07;18.30;99.90
25450;DHT22;13371;52.080;5.624;2023-05-07T07:52:34;17.90;99.90
25450;DHT22;13371;52.080;5.624;2023-05-07T07:54:59;17.60;99.90
25450;DHT22;13371;52.080;5.624;2023-05-07T07:57:25;17.90;99.90
25450;DHT22;13371;52.080;5.624;2023-05-07T07:59:50;18.20;99.90
25450;DHT22;13371;52.080;5.624;2023-05-07T08:02:16;18.10;99.90
25450;DHT22;13371;52.080;5.624;2023-05-07T08:04:42;17.80;99.90
25450;DHT22;13371;52.080;5.624;2023-05-07T08:07:11;17.40;99.90
25450;DHT22;13371;52.080;5.624;2023-05-07T08:09:37;17.90;99.90
25450;DHT22;13371;52.080;5.624;2023-05-07T08:12:04;17.80;99.90
25450;DHT22;13371;52.080;5.624;2023-05-07T08:14:29;17.50;99.90
25450;DHT22;13371;52.080;5.624;2023-05-07T08:16:55;17.60;99.90
25450;DHT22;13371;52.080;5.624;2023-05-07T08:19:21;17.70;99.90
25450;DHT22;13371;52.080;5.624;2023-05-07T08:21:47;18.00;99.90
25450;DHT22;13371;52.080;5.624;2023-05-07T08:24:16;18.10;99.90
25450;DHT22;13371;52.080;5.624;2023-05-07T08:26:43;18.10;99.90
25450;DHT22;13371;52.080;5.624;2023-05-07T08:29:09;17.90;99.90
25450;DHT22;13371;52.080;5.624;2023-05-07T08:31:35;18.30;99.90
25450;DHT22;13371;52.080;5.624;2023-05-07T08:34:01;18.70;99.90
25450;DHT22;13371;52.080;5.624;2023-05-07T08:36:26;18.90;99.90
25450;DHT22;13371;52.080;5.624;2023-05-07T08:38:52;19.10;99.90
25450;DHT22;13371;52.080;5.624;2023-05-07T08:41:18;18.60;99.90
25450;DHT22;13371;52.080;5.624;2023-05-07T08:43:47;18.50;99.90
25450;DHT22;13371;52.080;5.624;2023-05-07T08:46:18;18.90;99.90
25450;DHT22;13371;52.080;5.624;2023-05-07T08:48:45;19.40;99.90
25450;DHT22;13371;52.080;5.624;2023-05-07T08:51:15;19.20;99.90
25450;DHT22;13371;52.080;5.624;2023-05-07T08:53:41;19.40;99.90
25450;DHT22;13371;52.080;5.624;2023-05-07T08:56:08;19.80;99.90
25450;DHT22;13371;52.080;5.624;2023-05-07T08:58:35;20.10;99.90
25450;DHT22;13371;52.080;5.624;2023-05-07T09:01:15;19.80;99.90
25450;DHT22;13371;52.080;5.624;2023-05-07T09:03:43;19.90;99.90
25450;DHT22;13371;52.080;5.624;2023-05-07T09:06:09;19.70;99.90
25450;DHT22;13371;52.080;5.624;2023-05-07T09:08:35;19.80;99.90
25450;DHT22;13371;52.080;5.624;2023-05-07T09:11:02;20.10;99.90
25450;DHT22;13371;52.080;5.624;2023-05-07T09:13:28;20.10;99.90
25450;DHT22;13371;52.080;5.624;2023-05-07T09:15:54;20.20;99.90
25450;DHT22;13371;52.080;5.624;2023-05-07T09:18:19;20.30;99.90
25450;DHT22;13371;52.080;5.624;2023-05-07T09:20:45;20.20;99.90
25450;DHT22;13371;52.080;5.624;2023-05-07T09:23:11;20.20;99.90
25450;DHT22;13371;52.080;5.624;2023-05-07T09:25:36;20.60;99.90
25450;DHT22;13371;52.080;5.624;2023-05-07T09:28:04;20.20;99.90
25450;DHT22;13371;52.080;5.624;2023-05-07T09:30:30;20.50;99.90
25450;DHT22;13371;52.080;5.624;2023-05-07T09:32:58;20.70;99.90
25450;DHT22;13371;52.080;5.624;2023-05-07T09:35:24;20.60;99.90
25450;DHT22;13371;52.080;5.624;2023-05-07T09:37:53;20.80;99.90
25450;DHT22;13371;52.080;5.624;2023-05-07T09:40:24;20.60;99.90
25450;DHT22;13371;52.080;5.624;2023-05-07T09:42:50;20.60;99.90
25450;DHT22;13371;52.080;5.624;2023-05-07T09:45:26;20.80;99.90
25450;DHT22;13371;52.080;5.624;2023-05-07T09:47:57;20.50;99.70
25450;DHT22;13371;52.080;5.624;2023-05-07T09:50:28;19.90;99.70
25450;DHT22;13371;52.080;5.624;2023-05-07T09:52:57;19.70;99.90
25450;DHT22;13371;52.080;5.624;2023-05-07T09:55:23;20.30;99.90
25450;DHT22;13371;52.080;5.624;2023-05-07T09:57:52;20.60;99.90
25450;DHT22;13371;52.080;5.624;2023-05-07T10:00:19;20.90;99.50
25450;DHT22;13371;52.080;5.624;2023-05-07T10:02:50;20.90;99.20
25450;DHT22;13371;52.080;5.624;2023-05-07T10:05:18;20.90;99.30
25450;DHT22;13371;52.080;5.624;2023-05-07T10:07:45;21.40;98.60
25450;DHT22;13371;52.080;5.624;2023-05-07T10:10:11;21.60;97.90
25450;DHT22;13371;52.080;5.624;2023-05-07T10:12:38;21.50;98.20
25450;DHT22;13371;52.080;5.624;2023-05-07T10:15:09;21.70;98.30
25450;DHT22;13371;52.080;5.624;2023-05-07T10:17:40;22.00;97.00
25450;DHT22;13371;52.080;5.624;2023-05-07T10:20:07;21.10;96.30
25450;DHT22;13371;52.080;5.624;2023-05-07T10:22:45;21.40;98.00
25450;DHT22;13371;52.080;5.624;2023-05-07T10:25:22;20.50;98.50
25450;DHT22;13371;52.080;5.624;2023-05-07T10:27:49;20.50;98.40
25450;DHT22;13371;52.080;5.624;2023-05-07T10:30:22;20.50;99.30
25450;DHT22;13371;52.080;5.624;2023-05-07T10:32:55;21.20;98.30
25450;DHT22;13371;52.080;5.624;2023-05-07T10:35:25;21.20;97.80
25450;DHT22;13371;52.080;5.624;2023-05-07T10:37:51;21.00;97.00
25450;DHT22;13371;52.080;5.624;2023-05-07T10:40:19;21.30;97.30
25450;DHT22;13371;52.080;5.624;2023-05-07T10:43:00;21.50;97.50
25450;DHT22;13371;52.080;5.624;2023-05-07T10:45:27;21.90;96.70
25450;DHT22;13371;52.080;5.624;2023-05-07T10:48:09;21.80;95.10
25450;DHT22;13371;52.080;5.624;2023-05-07T10:50:39;21.90;95.60
25450;DHT22;13371;52.080;5.624;2023-05-07T10:56:23;21.70;95.80
25450;DHT22;13371;52.080;5.624;2023-05-07T10:58:34;21.80;95.70
25450;DHT22;13371;52.080;5.624;2023-05-07T11:01:02;21.70;95.50
25450;DHT22;13371;52.080;5.624;2023-05-07T11:03:28;22.40;94.50
25450;DHT22;13371;52.080;5.624;2023-05-07T11:06:11;21.60;94.70
25450;DHT22;13371;52.080;5.624;2023-05-07T11:11:18;21.40;95.80
25450;DHT22;13371;52.080;5.624;2023-05-07T11:13:46;21.50;95.00
25450;DHT22;13371;52.080;5.624;2023-05-07T11:16:22;21.00;93.80
25450;DHT22;13371;52.080;5.624;2023-05-07T11:18:51;21.70;94.20
25450;DHT22;13371;52.080;5.624;2023-05-07T11:21:36;21.90;93.20
25450;DHT22;13371;52.080;5.624;2023-05-07T11:24:03;22.10;92.60
25450;DHT22;13371;52.080;5.624;2023-05-07T11:26:48;22.30;91.90
25450;DHT22;13371;52.080;5.624;2023-05-07T11:29:16;22.50;91.90
25450;DHT22;13371;52.080;5.624;2023-05-07T11:31:42;22.80;92.80
25450;DHT22;13371;52.080;5.624;2023-05-07T11:34:08;22.80;92.20
25450;DHT22;13371;52.080;5.624;2023-05-07T11:36:34;22.90;90.30
25450;DHT22;13371;52.080;5.624;2023-05-07T11:39:01;22.50;91.20
25450;DHT22;13371;52.080;5.624;2023-05-07T11:41:36;22.80;91.10
25450;DHT22;13371;52.080;5.624;2023-05-07T11:44:02;22.60;91.50
25450;DHT22;13371;52.080;5.624;2023-05-07T11:46:28;22.90;91.80
25450;DHT22;13371;52.080;5.624;2023-05-07T11:48:55;23.20;91.10
25450;DHT22;13371;52.080;5.624;2023-05-07T11:51:22;23.40;90.60
25450;DHT22;13371;52.080;5.624;2023-05-07T11:53:48;22.80;91.10
25450;DHT22;13371;52.080;5.624;2023-05-07T11:56:15;23.30;91.90
25450;DHT22;13371;52.080;5.624;2023-05-07T11:58:42;23.30;91.50
25450;DHT22;13371;52.080;5.624;2023-05-07T12:01:09;23.40;93.20
25450;DHT22;13371;52.080;5.624;2023-05-07T12:03:36;23.70;92.30
25450;DHT22;13371;52.080;5.624;2023-05-07T12:06:08;23.80;93.20
25450;DHT22;13371;52.080;5.624;2023-05-07T12:08:36;23.50;92.30
25450;DHT22;13371;52.080;5.624;2023-05-07T12:11:03;23.00;92.50
25450;DHT22;13371;52.080;5.624;2023-05-07T12:13:29;23.00;93.40
25450;DHT22;13371;52.080;5.624;2023-05-07T12:15:56;23.10;93.90
25450;DHT22;13371;52.080;5.624;2023-05-07T12:18:23;23.00;93.70
25450;DHT22;13371;52.080;5.624;2023-05-07T12:20:49;23.30;94.30
25450;DHT22;13371;52.080;5.624;2023-05-07T12:23:16;23.60;94.70
25450;DHT22;13371;52.080;5.624;2023-05-07T12:25:42;23.20;93.10
25450;DHT22;13371;52.080;5.624;2023-05-07T12:28:20;23.20;94.80
25450;DHT22;13371;52.080;5.624;2023-05-07T12:30:47;23.00;93.40
25450;DHT22;13371;52.080;5.624;2023-05-07T12:33:18;22.70;94.00
25450;DHT22;13371;52.080;5.624;2023-05-07T12:35:47;22.80;93.90
25450;DHT22;13371;52.080;5.624;2023-05-07T12:38:14;23.30;94.80
25450;DHT22;13371;52.080;5.624;2023-05-07T12:40:42;23.30;93.60
25450;DHT22;13371;52.080;5.624;2023-05-07T12:43:21;23.20;93.40
25450;DHT22;13371;52.080;5.624;2023-05-07T12:45:50;23.00;93.20
25450;DHT22;13371;52.080;5.624;2023-05-07T12:48:17;23.40;95.30
25450;DHT22;13371;52.080;5.624;2023-05-07T12:50:42;23.00;93.70
25450;DHT22;13371;52.080;5.624;2023-05-07T12:53:10;22.90;94.40
25450;DHT22;13371;52.080;5.624;2023-05-07T12:55:42;23.20;94.40
25450;DHT22;13371;52.080;5.624;2023-05-07T12:58:07;22.90;94.10
25450;DHT22;13371;52.080;5.624;2023-05-07T13:00:37;23.20;94.40
25450;DHT22;13371;52.080;5.624;2023-05-07T13:03:03;23.20;94.00
25450;DHT22;13371;52.080;5.624;2023-05-07T13:05:29;23.00;93.70
25450;DHT22;13371;52.080;5.624;2023-05-07T13:07:55;23.30;94.00
25450;DHT22;13371;52.080;5.624;2023-05-07T13:10:25;23.10;92.90
25450;DHT22;13371;52.080;5.624;2023-05-07T13:12:51;22.80;93.60
25450;DHT22;13371;52.080;5.624;2023-05-07T13:15:17;23.00;94.40
25450;DHT22;13371;52.080;5.624;2023-05-07T13:17:43;23.30;93.60
25450;DHT22;13371;52.080;5.624;2023-05-07T13:20:09;23.30;93.10
25450;DHT22;13371;52.080;5.624;2023-05-07T13:22:36;23.50;92.20
25450;DHT22;13371;52.080;5.624;2023-05-07T13:25:01;23.50;91.70
25450;DHT22;13371;52.080;5.624;2023-05-07T13:27:27;23.50;91.60
25450;DHT22;13371;52.080;5.624;2023-05-07T13:29:52;23.60;91.80
25450;DHT22;13371;52.080;5.624;2023-05-07T13:32:18;23.20;91.90
25450;DHT22;13371;52.080;5.624;2023-05-07T13:34:44;23.10;92.20
25450;DHT22;13371;52.080;5.624;2023-05-07T13:37:09;23.20;92.50
25450;DHT22;13371;52.080;5.624;2023-05-07T13:39:36;22.80;92.70
25450;DHT22;13371;52.080;5.624;2023-05-07T13:42:01;23.10;92.80
25450;DHT22;13371;52.080;5.624;2023-05-07T13:44:27;23.10;93.10
25450;DHT22;13371;52.080;5.624;2023-05-07T13:46:53;23.00;93.10
25450;DHT22;13371;52.080;5.624;2023-05-07T13:49:18;22.90;92.80
25450;DHT22;13371;52.080;5.624;2023-05-07T13:51:44;23.00;92.90
25450;DHT22;13371;52.080;5.624;2023-05-07T13:54:09;23.00;93.00
25450;DHT22;13371;52.080;5.624;2023-05-07T13:56:35;22.90;92.80
25450;DHT22;13371;52.080;5.624;2023-05-07T13:59:01;23.20;92.90
25450;DHT22;13371;52.080;5.624;2023-05-07T14:01:26;23.30;92.70
25450;DHT22;13371;52.080;5.624;2023-05-07T14:03:52;22.90;92.50
25450;DHT22;13371;52.080;5.624;2023-05-07T14:06:18;22.50;93.80
25450;DHT22;13371;52.080;5.624;2023-05-07T14:08:43;22.60;93.70
25450;DHT22;13371;52.080;5.624;2023-05-07T14:11:09;22.70;93.60
25450;DHT22;13371;52.080;5.624;2023-05-07T14:13:34;22.70;93.70
25450;DHT22;13371;52.080;5.624;2023-05-07T14:16:00;22.80;93.40
25450;DHT22;13371;52.080;5.624;2023-05-07T14:18:26;22.70;93.40
25450;DHT22;13371;52.080;5.624;2023-05-07T14:20:52;22.70;93.90
25450;DHT22;13371;52.080;5.624;2023-05-07T14:23:17;22.90;93.10
25450;DHT22;13371;52.080;5.624;2023-05-07T14:25:45;23.00;93.10
25450;DHT22;13371;52.080;5.624;2023-05-07T14:28:12;23.00;93.00
25450;DHT22;13371;52.080;5.624;2023-05-07T14:30:38;23.30;93.40
25450;DHT22;13371;52.080;5.624;2023-05-07T14:33:04;23.60;92.60
25450;DHT22;13371;52.080;5.624;2023-05-07T14:35:29;23.90;92.20
25450;DHT22;13371;52.080;5.624;2023-05-07T14:37:55;23.70;91.40
25450;DHT22;13371;52.080;5.624;2023-05-07T14:40:20;23.70;91.40
25450;DHT22;13371;52.080;5.624;2023-05-07T14:42:46;23.20;92.20
25450;DHT22;13371;52.080;5.624;2023-05-07T14:45:11;23.40;92.00
25450;DHT22;13371;52.080;5.624;2023-05-07T14:47:38;23.10;92.40
25450;DHT22;13371;52.080;5.624;2023-05-07T14:50:04;23.10;92.30
25450;DHT22;13371;52.080;5.624;2023-05-07T14:52:32;22.60;93.10
25450;DHT22;13371;52.080;5.624;2023-05-07T14:54:57;22.60;93.20
25450;DHT22;13371;52.080;5.624;2023-05-07T14:57:23;22.40;93.60
25450;DHT22;13371;52.080;5.624;2023-05-07T14:59:48;22.10;94.10
25450;DHT22;13371;52.080;5.624;2023-05-07T15:02:17;22.40;94.10
25450;DHT22;13371;52.080;5.624;2023-05-07T15:04:43;22.30;93.60
25450;DHT22;13371;52.080;5.624;2023-05-07T15:07:12;22.30;94.30
25450;DHT22;13371;52.080;5.624;2023-05-07T15:09:41;22.20;94.20
25450;DHT22;13371;52.080;5.624;2023-05-07T15:12:06;22.20;94.10
25450;DHT22;13371;52.080;5.624;2023-05-07T15:14:33;22.30;94.40
25450;DHT22;13371;52.080;5.624;2023-05-07T15:16:58;22.60;93.70
25450;DHT22;13371;52.080;5.624;2023-05-07T15:43:58;19.80;99.90
25450;DHT22;13371;52.080;5.624;2023-05-07T15:47:01;20.10;99.90
25450;DHT22;13371;52.080;5.624;2023-05-07T15:49:39;20.00;99.90
25450;DHT22;13371;52.080;5.624;2023-05-07T15:52:11;20.10;99.90
25450;DHT22;13371;52.080;5.624;2023-05-07T15:54:39;20.00;99.90
25450;DHT22;13371;52.080;5.624;2023-05-07T15:57:08;19.80;99.90
25450;DHT22;13371;52.080;5.624;2023-05-07T15:59:59;19.50;99.90